sensor_id;sensor_type;location;lat;lon;timestamp;P1;durP1;ratioP1;P2;durP2;ratioP2
48651;SDS011;34442;52.362;-1.302;2022-09-01T00:01:37;1.25;;;0.80;;
48651;SDS011;34442;52.362;-1.302;2022-09-01T00:04:07;1.35;;;0.77;;
48651;SDS011;34442;52.362;-1.302;2022-09-01T00:06:35;1.85;;;0.88;;
48651;SDS011;34442;52.362;-1.302;2022-09-01T00:09:06;0.88;;;0.60;;
48651;SDS011;34442;52.362;-1.302;2022-09-01T00:11:34;2.80;;;0.88;;
48651;SDS011;34442;52.362;-1.302;2022-09-01T00:14:01;0.95;;;0.70;;
48651;SDS011;34442;52.362;-1.302;2022-09-01T00:16:28;1.33;;;0.70;;
48651;SDS011;34442;52.362;-1.302;2022-09-01T00:18:55;0.93;;;0.70;;
48651;SDS011;34442;52.362;-1.302;2022-09-01T00:21:23;0.73;;;0.60;;
48651;SDS011;34442;52.362;-1.302;2022-09-01T00:23:51;1.85;;;0.60;;
48651;SDS011;34442;52.362;-1.302;2022-09-01T00:26:17;1.30;;;0.73;;
48651;SDS011;34442;52.362;-1.302;2022-09-01T00:28:43;2.10;;;0.82;;
48651;SDS011;34442;52.362;-1.302;2022-09-01T00:31:09;1.83;;;0.93;;
48651;SDS011;34442;52.362;-1.302;2022-09-01T00:33:36;1.23;;;1.00;;
48651;SDS011;34442;52.362;-1.302;2022-09-01T00:36:04;1.73;;;0.80;;
48651;SDS011;34442;52.362;-1.302;2022-09-01T00:38:30;2.83;;;0.90;;
48651;SDS011;34442;52.362;-1.302;2022-09-01T00:40:58;1.63;;;0.90;;
48651;SDS011;34442;52.362;-1.302;2022-09-01T00:46:18;2.80;;;0.90;;
48651;SDS011;34442;52.362;-1.302;2022-09-01T00:48:50;1.42;;;0.80;;
48651;SDS011;34442;52.362;-1.302;2022-09-01T00:51:20;2.67;;;0.93;;
48651;SDS011;34442;52.362;-1.302;2022-09-01T00:53:47;2.75;;;0.88;;
48651;SDS011;34442;52.362;-1.302;2022-09-01T00:56:14;1.13;;;0.60;;
48651;SDS011;34442;52.362;-1.302;2022-09-01T00:58:40;1.48;;;0.82;;
48651;SDS011;34442;52.362;-1.302;2022-09-01T01:01:07;1.20;;;0.73;;
48651;SDS011;34442;52.362;-1.302;2022-09-01T01:03:35;0.77;;;0.77;;
48651;SDS011;34442;52.362;-1.302;2022-09-01T01:06:04;1.60;;;0.80;;
48651;SDS011;34442;52.362;-1.302;2022-09-01T01:08:33;1.27;;;0.75;;
48651;SDS011;34442;52.362;-1.302;2022-09-01T01:11:06;1.75;;;0.88;;
48651;SDS011;34442;52.362;-1.302;2022-09-01T01:14:08;1.27;;;0.80;;
48651;SDS011;34442;52.362;-1.302;2022-09-01T01:16:40;1.45;;;0.75;;
48651;SDS011;34442;52.362;-1.302;2022-09-01T01:19:26;1.25;;;0.80;;
48651;SDS011;34442;52.362;-1.302;2022-09-01T01:25:24;2.17;;;1.00;;
48651;SDS011;34442;52.362;-1.302;2022-09-01T01:27:51;2.88;;;1.00;;
48651;SDS011;34442;52.362;-1.302;2022-09-01T01:30:17;1.45;;;0.88;;
48651;SDS011;34442;52.362;-1.302;2022-09-01T01:32:45;1.73;;;0.93;;
48651;SDS011;34442;52.362;-1.302;2022-09-01T01:35:13;3.17;;;1.27;;
48651;SDS011;34442;52.362;-1.302;2022-09-01T01:37:45;2.47;;;1.10;;
48651;SDS011;34442;52.362;-1.302;2022-09-01T01:40:14;2.63;;;1.05;;
48651;SDS011;34442;52.362;-1.302;2022-09-01T01:42:45;1.13;;;0.80;;
48651;SDS011;34442;52.362;-1.302;2022-09-01T01:45:14;1.17;;;0.80;;
48651;SDS011;34442;52.362;-1.302;2022-09-01T01:47:44;1.60;;;0.88;;
48651;SDS011;34442;52.362;-1.302;2022-09-01T01:50:16;1.33;;;0.80;;
48651;SDS011;34442;52.362;-1.302;2022-09-01T01:52:42;1.67;;;1.00;;
48651;SDS011;34442;52.362;-1.302;2022-09-01T01:55:08;3.05;;;1.13;;
48651;SDS011;34442;52.362;-1.302;2022-09-01T01:57:38;0.80;;;0.70;;
48651;SDS011;34442;52.362;-1.302;2022-09-01T02:00:13;2.08;;;0.90;;
48651;SDS011;34442;52.362;-1.302;2022-09-01T02:02:47;3.03;;;0.80;;
48651;SDS011;34442;52.362;-1.302;2022-09-01T02:05:18;1.95;;;1.27;;
48651;SDS011;34442;52.362;-1.302;2022-09-01T02:07:53;1.30;;;1.00;;
48651;SDS011;34442;52.362;-1.302;2022-09-01T02:10:25;0.75;;;0.73;;
48651;SDS011;34442;52.362;-1.302;2022-09-01T02:15:33;1.83;;;1.00;;
48651;SDS011;34442;52.362;-1.302;2022-09-01T02:18:08;2.42;;;1.27;;
48651;SDS011;34442;52.362;-1.302;2022-09-01T02:20:49;1.90;;;1.00;;
48651;SDS011;34442;52.362;-1.302;2022-09-01T02:23:17;2.88;;;1.45;;
48651;SDS011;34442;52.362;-1.302;2022-09-01T02:25:50;2.55;;;1.25;;
48651;SDS011;34442;52.362;-1.302;2022-09-01T02:28:19;4.32;;;1.48;;
48651;SDS011;34442;52.362;-1.302;2022-09-01T02:30:48;3.08;;;1.25;;
48651;SDS011;34442;52.362;-1.302;2022-09-01T02:33:20;2.80;;;1.20;;
48651;SDS011;34442;52.362;-1.302;2022-09-01T02:35:48;3.60;;;1.58;;
48651;SDS011;34442;52.362;-1.302;2022-09-01T02:38:26;6.85;;;1.80;;
48651;SDS011;34442;52.362;-1.302;2022-09-01T02:40:54;2.53;;;1.30;;
48651;SDS011;34442;52.362;-1.302;2022-09-01T02:43:23;3.88;;;1.80;;
48651;SDS011;34442;52.362;-1.302;2022-09-01T02:45:53;2.80;;;1.27;;
48651;SDS011;34442;52.362;-1.302;2022-09-01T02:48:26;4.70;;;1.48;;
48651;SDS011;34442;52.362;-1.302;2022-09-01T02:50:58;2.55;;;1.30;;
48651;SDS011;34442;52.362;-1.302;2022-09-01T02:53:29;3.13;;;1.40;;
48651;SDS011;34442;52.362;-1.302;2022-09-01T02:55:59;3.65;;;1.98;;
48651;SDS011;34442;52.362;-1.302;2022-09-01T02:58:27;2.60;;;1.40;;
48651;SDS011;34442;52.362;-1.302;2022-09-01T03:00:57;3.08;;;1.63;;
48651;SDS011;34442;52.362;-1.302;2022-09-01T03:03:23;5.03;;;1.70;;
48651;SDS011;34442;52.362;-1.302;2022-09-01T03:05:50;3.03;;;1.30;;
48651;SDS011;34442;52.362;-1.302;2022-09-01T03:08:21;4.00;;;1.60;;
48651;SDS011;34442;52.362;-1.302;2022-09-01T03:10:49;3.17;;;1.60;;
48651;SDS011;34442;52.362;-1.302;2022-09-01T03:13:17;4.95;;;2.10;;
48651;SDS011;34442;52.362;-1.302;2022-09-01T03:15:47;5.47;;;1.90;;
48651;SDS011;34442;52.362;-1.302;2022-09-01T03:18:14;1.88;;;1.30;;
48651;SDS011;34442;52.362;-1.302;2022-09-01T03:20:43;2.70;;;1.40;;
48651;SDS011;34442;52.362;-1.302;2022-09-01T03:23:15;1.73;;;1.17;;
48651;SDS011;34442;52.362;-1.302;2022-09-01T03:25:43;3.00;;;1.40;;
48651;SDS011;34442;52.362;-1.302;2022-09-01T03:28:12;2.17;;;1.17;;
48651;SDS011;34442;52.362;-1.302;2022-09-01T03:30:42;3.00;;;1.40;;
48651;SDS011;34442;52.362;-1.302;2022-09-01T03:33:10;3.50;;;1.73;;
48651;SDS011;34442;52.362;-1.302;2022-09-01T03:35:36;3.20;;;1.70;;
48651;SDS011;34442;52.362;-1.302;2022-09-01T03:38:03;1.92;;;1.25;;
48651;SDS011;34442;52.362;-1.302;2022-09-01T03:40:30;2.85;;;1.30;;
48651;SDS011;34442;52.362;-1.302;2022-09-01T03:42:59;3.38;;;1.33;;
48651;SDS011;34442;52.362;-1.302;2022-09-01T03:45:25;2.88;;;1.52;;
48651;SDS011;34442;52.362;-1.302;2022-09-01T03:47:52;3.25;;;1.58;;
48651;SDS011;34442;52.362;-1.302;2022-09-01T03:50:20;3.30;;;1.65;;
48651;SDS011;34442;52.362;-1.302;2022-09-01T03:55:24;2.63;;;1.40;;
48651;SDS011;34442;52.362;-1.302;2022-09-01T03:57:53;4.97;;;2.10;;
48651;SDS011;34442;52.362;-1.302;2022-09-01T04:00:21;4.75;;;2.28;;
48651;SDS011;34442;52.362;-1.302;2022-09-01T04:02:50;5.03;;;1.95;;
48651;SDS011;34442;52.362;-1.302;2022-09-01T04:05:20;2.60;;;1.30;;
48651;SDS011;34442;52.362;-1.302;2022-09-01T04:07:49;5.60;;;1.95;;
48651;SDS011;34442;52.362;-1.302;2022-09-01T04:10:16;2.08;;;1.27;;
48651;SDS011;34442;52.362;-1.302;2022-09-01T04:12:43;3.78;;;1.70;;
48651;SDS011;34442;52.362;-1.302;2022-09-01T04:15:11;2.75;;;1.63;;
48651;SDS011;34442;52.362;-1.302;2022-09-01T04:17:39;5.20;;;1.75;;
48651;SDS011;34442;52.362;-1.302;2022-09-01T04:20:23;2.42;;;1.20;;
48651;SDS011;34442;52.362;-1.302;2022-09-01T04:22:49;2.90;;;1.10;;
48651;SDS011;34442;52.362;-1.302;2022-09-01T04:25:17;2.63;;;1.42;;
48651;SDS011;34442;52.362;-1.302;2022-09-01T04:27:51;3.10;;;1.50;;
48651;SDS011;34442;52.362;-1.302;2022-09-01T04:30:22;2.88;;;1.30;;
48651;SDS011;34442;52.362;-1.302;2022-09-01T04:32:51;2.45;;;1.30;;
48651;SDS011;34442;52.362;-1.302;2022-09-01T04:35:21;4.13;;;2.40;;
48651;SDS011;34442;52.362;-1.302;2022-09-01T04:37:52;4.70;;;2.08;;
48651;SDS011;34442;52.362;-1.302;2022-09-01T04:40:18;3.58;;;1.98;;
48651;SDS011;34442;52.362;-1.302;2022-09-01T04:42:48;4.50;;;1.50;;
48651;SDS011;34442;52.362;-1.302;2022-09-01T04:45:14;2.33;;;1.20;;
48651;SDS011;34442;52.362;-1.302;2022-09-01T04:47:41;3.58;;;1.80;;
48651;SDS011;34442;52.362;-1.302;2022-09-01T04:50:08;2.67;;;1.40;;
48651;SDS011;34442;52.362;-1.302;2022-09-01T04:52:42;3.50;;;1.73;;
48651;SDS011;34442;52.362;-1.302;2022-09-01T04:55:10;1.60;;;1.15;;
48651;SDS011;34442;52.362;-1.302;2022-09-01T04:57:46;2.30;;;1.33;;
48651;SDS011;34442;52.362;-1.302;2022-09-01T05:00:14;4.47;;;1.85;;
48651;SDS011;34442;52.362;-1.302;2022-09-01T05:02:53;5.00;;;2.35;;
48651;SDS011;34442;52.362;-1.302;2022-09-01T05:05:28;3.75;;;2.13;;
48651;SDS011;34442;52.362;-1.302;2022-09-01T05:08:06;2.95;;;1.70;;
48651;SDS011;34442;52.362;-1.302;2022-09-01T05:10:42;3.72;;;1.50;;
48651;SDS011;34442;52.362;-1.302;2022-09-01T05:13:12;4.20;;;1.50;;
48651;SDS011;34442;52.362;-1.302;2022-09-01T05:15:42;2.45;;;1.40;;
48651;SDS011;34442;52.362;-1.302;2022-09-01T05:18:15;2.65;;;1.25;;
48651;SDS011;34442;52.362;-1.302;2022-09-01T05:20:48;2.67;;;1.35;;
48651;SDS011;34442;52.362;-1.302;2022-09-01T05:23:15;2.83;;;1.30;;
48651;SDS011;34442;52.362;-1.302;2022-09-01T05:25:48;3.90;;;1.40;;
48651;SDS011;34442;52.362;-1.302;2022-09-01T05:28:18;3.42;;;1.30;;
48651;SDS011;34442;52.362;-1.302;2022-09-01T05:30:45;3.15;;;1.45;;
48651;SDS011;34442;52.362;-1.302;2022-09-01T05:33:13;3.22;;;1.30;;
48651;SDS011;34442;52.362;-1.302;2022-09-01T05:35:42;1.70;;;1.10;;
48651;SDS011;34442;52.362;-1.302;2022-09-01T05:38:21;3.53;;;1.55;;
48651;SDS011;34442;52.362;-1.302;2022-09-01T05:41:00;3.40;;;1.50;;
48651;SDS011;34442;52.362;-1.302;2022-09-01T05:43:27;1.83;;;1.20;;
48651;SDS011;34442;52.362;-1.302;2022-09-01T05:45:55;3.28;;;1.38;;
48651;SDS011;34442;52.362;-1.302;2022-09-01T05:48:23;3.83;;;1.25;;
48651;SDS011;34442;52.362;-1.302;2022-09-01T05:50:50;4.38;;;1.52;;
48651;SDS011;34442;52.362;-1.302;2022-09-01T05:53:17;2.58;;;1.20;;
48651;SDS011;34442;52.362;-1.302;2022-09-01T05:55:46;1.50;;;1.00;;
48651;SDS011;34442;52.362;-1.302;2022-09-01T05:58:14;1.90;;;1.00;;
48651;SDS011;34442;52.362;-1.302;2022-09-01T06:00:41;2.72;;;1.00;;
48651;SDS011;34442;52.362;-1.302;2022-09-01T06:03:09;2.55;;;0.95;;
48651;SDS011;34442;52.362;-1.302;2022-09-01T06:05:37;3.30;;;1.20;;
48651;SDS011;34442;52.362;-1.302;2022-09-01T06:08:04;1.60;;;0.90;;
48651;SDS011;34442;52.362;-1.302;2022-09-01T06:10:32;2.75;;;0.93;;
48651;SDS011;34442;52.362;-1.302;2022-09-01T06:13:05;1.45;;;0.80;;
48651;SDS011;34442;52.362;-1.302;2022-09-01T06:15:32;1.52;;;1.00;;
48651;SDS011;34442;52.362;-1.302;2022-09-01T06:17:58;1.67;;;0.80;;
48651;SDS011;34442;52.362;-1.302;2022-09-01T06:20:25;1.30;;;0.80;;
48651;SDS011;34442;52.362;-1.302;2022-09-01T06:22:52;2.22;;;1.00;;
48651;SDS011;34442;52.362;-1.302;2022-09-01T06:25:18;3.80;;;1.20;;
48651;SDS011;34442;52.362;-1.302;2022-09-01T06:27:46;1.80;;;0.90;;
48651;SDS011;34442;52.362;-1.302;2022-09-01T06:30:13;1.75;;;1.05;;
48651;SDS011;34442;52.362;-1.302;2022-09-01T06:32:43;1.70;;;0.98;;
48651;SDS011;34442;52.362;-1.302;2022-09-01T06:35:10;5.90;;;1.13;;
48651;SDS011;34442;52.362;-1.302;2022-09-01T06:37:37;2.67;;;1.10;;
48651;SDS011;34442;52.362;-1.302;2022-09-01T06:40:04;0.85;;;0.70;;
48651;SDS011;34442;52.362;-1.302;2022-09-01T06:42:32;1.73;;;0.90;;
48651;SDS011;34442;52.362;-1.302;2022-09-01T06:45:00;2.15;;;0.90;;
48651;SDS011;34442;52.362;-1.302;2022-09-01T06:47:26;1.90;;;1.10;;
48651;SDS011;34442;52.362;-1.302;2022-09-01T06:49:55;1.88;;;0.80;;
48651;SDS011;34442;52.362;-1.302;2022-09-01T06:52:24;2.40;;;0.90;;
48651;SDS011;34442;52.362;-1.302;2022-09-01T06:54:50;1.95;;;1.00;;
48651;SDS011;34442;52.362;-1.302;2022-09-01T06:57:20;1.23;;;0.85;;
48651;SDS011;34442;52.362;-1.302;2022-09-01T06:59:51;1.27;;;0.95;;
48651;SDS011;34442;52.362;-1.302;2022-09-01T07:02:19;1.33;;;0.70;;
48651;SDS011;34442;52.362;-1.302;2022-09-01T07:04:45;1.75;;;0.88;;
48651;SDS011;34442;52.362;-1.302;2022-09-01T07:07:11;2.20;;;0.90;;
48651;SDS011;34442;52.362;-1.302;2022-09-01T07:09:38;1.67;;;0.80;;
48651;SDS011;34442;52.362;-1.302;2022-09-01T07:12:05;2.50;;;1.08;;
48651;SDS011;34442;52.362;-1.302;2022-09-01T07:14:32;1.25;;;0.80;;
48651;SDS011;34442;52.362;-1.302;2022-09-01T07:16:58;1.75;;;0.82;;
48651;SDS011;34442;52.362;-1.302;2022-09-01T07:19:24;1.40;;;0.70;;
48651;SDS011;34442;52.362;-1.302;2022-09-01T07:21:51;1.88;;;0.98;;
48651;SDS011;34442;52.362;-1.302;2022-09-01T07:24:18;2.00;;;0.80;;
48651;SDS011;34442;52.362;-1.302;2022-09-01T07:26:45;4.88;;;1.23;;
48651;SDS011;34442;52.362;-1.302;2022-09-01T07:29:17;3.05;;;1.25;;
48651;SDS011;34442;52.362;-1.302;2022-09-01T07:31:47;2.05;;;1.00;;
48651;SDS011;34442;52.362;-1.302;2022-09-01T07:34:13;2.38;;;0.90;;
48651;SDS011;34442;52.362;-1.302;2022-09-01T07:36:42;3.10;;;1.23;;
48651;SDS011;34442;52.362;-1.302;2022-09-01T07:39:09;1.50;;;0.90;;
48651;SDS011;34442;52.362;-1.302;2022-09-01T07:41:36;3.25;;;1.02;;
48651;SDS011;34442;52.362;-1.302;2022-09-01T07:44:03;4.18;;;1.00;;
48651;SDS011;34442;52.362;-1.302;2022-09-01T07:46:30;2.10;;;0.80;;
48651;SDS011;34442;52.362;-1.302;2022-09-01T07:48:57;1.65;;;1.10;;
48651;SDS011;34442;52.362;-1.302;2022-09-01T07:51:26;1.60;;;1.05;;
48651;SDS011;34442;52.362;-1.302;2022-09-01T07:53:53;2.72;;;1.20;;
48651;SDS011;34442;52.362;-1.302;2022-09-01T07:56:20;1.73;;;0.88;;
48651;SDS011;34442;52.362;-1.302;2022-09-01T07:58:48;2.03;;;0.80;;
48651;SDS011;34442;52.362;-1.302;2022-09-01T08:01:17;1.98;;;0.93;;
48651;SDS011;34442;52.362;-1.302;2022-09-01T08:03:46;6.07;;;1.30;;
48651;SDS011;34442;52.362;-1.302;2022-09-01T08:06:15;2.30;;;1.02;;
48651;SDS011;34442;52.362;-1.302;2022-09-01T08:08:43;2.72;;;0.95;;
48651;SDS011;34442;52.362;-1.302;2022-09-01T08:11:14;1.67;;;0.80;;
48651;SDS011;34442;52.362;-1.302;2022-09-01T08:13:45;1.52;;;0.85;;
48651;SDS011;34442;52.362;-1.302;2022-09-01T08:16:12;2.33;;;1.00;;
48651;SDS011;34442;52.362;-1.302;2022-09-01T08:18:39;1.40;;;0.80;;
48651;SDS011;34442;52.362;-1.302;2022-09-01T08:21:09;3.20;;;1.00;;
48651;SDS011;34442;52.362;-1.302;2022-09-01T08:23:38;3.17;;;1.10;;
48651;SDS011;34442;52.362;-1.302;2022-09-01T08:26:05;2.97;;;1.08;;
48651;SDS011;34442;52.362;-1.302;2022-09-01T08:28:33;1.83;;;0.82;;
48651;SDS011;34442;52.362;-1.302;2022-09-01T08:30:59;1.73;;;0.77;;
48651;SDS011;34442;52.362;-1.302;2022-09-01T08:33:30;2.30;;;1.00;;
48651;SDS011;34442;52.362;-1.302;2022-09-01T08:35:59;2.50;;;0.90;;
48651;SDS011;34442;52.362;-1.302;2022-09-01T08:38:26;2.20;;;0.95;;
48651;SDS011;34442;52.362;-1.302;2022-09-01T08:40:53;1.88;;;0.75;;
48651;SDS011;34442;52.362;-1.302;2022-09-01T08:43:24;2.10;;;0.90;;
48651;SDS011;34442;52.362;-1.302;2022-09-01T08:46:12;2.38;;;1.15;;
48651;SDS011;34442;52.362;-1.302;2022-09-01T08:48:52;4.30;;;1.25;;
48651;SDS011;34442;52.362;-1.302;2022-09-01T08:56:42;3.60;;;1.02;;
48651;SDS011;34442;52.362;-1.302;2022-09-01T08:59:08;2.63;;;0.80;;
48651;SDS011;34442;52.362;-1.302;2022-09-01T09:01:40;2.20;;;1.05;;
48651;SDS011;34442;52.362;-1.302;2022-09-01T09:09:45;2.45;;;1.00;;
48651;SDS011;34442;52.362;-1.302;2022-09-01T09:17:36;2.03;;;0.90;;
48651;SDS011;34442;52.362;-1.302;2022-09-01T09:20:10;2.10;;;0.90;;
48651;SDS011;34442;52.362;-1.302;2022-09-01T09:22:36;2.70;;;0.98;;
48651;SDS011;34442;52.362;-1.302;2022-09-01T09:25:09;3.08;;;1.20;;
48651;SDS011;34442;52.362;-1.302;2022-09-01T09:27:40;1.48;;;0.95;;
48651;SDS011;34442;52.362;-1.302;2022-09-01T09:30:41;2.47;;;0.90;;
48651;SDS011;34442;52.362;-1.302;2022-09-01T09:33:05;1.53;;;0.73;;
48651;SDS011;34442;52.362;-1.302;2022-09-01T09:43:33;2.15;;;1.05;;
48651;SDS011;34442;52.362;-1.302;2022-09-01T09:46:45;3.50;;;1.00;;
48651;SDS011;34442;52.362;-1.302;2022-09-01T09:51:52;3.22;;;0.88;;
48651;SDS011;34442;52.362;-1.302;2022-09-01T09:56:47;2.03;;;0.75;;
48651;SDS011;34442;52.362;-1.302;2022-09-01T09:59:27;2.88;;;1.33;;
48651;SDS011;34442;52.362;-1.302;2022-09-01T10:01:59;2.03;;;0.77;;
48651;SDS011;34442;52.362;-1.302;2022-09-01T10:07:59;1.80;;;0.77;;
48651;SDS011;34442;52.362;-1.302;2022-09-01T10:13:03;2.08;;;0.77;;
48651;SDS011;34442;52.362;-1.302;2022-09-01T10:15:32;1.67;;;0.98;;
48651;SDS011;34442;52.362;-1.302;2022-09-01T10:18:03;1.55;;;0.60;;
48651;SDS011;34442;52.362;-1.302;2022-09-01T10:20:32;1.52;;;0.88;;
48651;SDS011;34442;52.362;-1.302;2022-09-01T10:23:02;0.85;;;0.65;;
48651;SDS011;34442;52.362;-1.302;2022-09-01T10:25:30;1.42;;;0.93;;
48651;SDS011;34442;52.362;-1.302;2022-09-01T10:28:01;2.25;;;0.93;;
48651;SDS011;34442;52.362;-1.302;2022-09-01T10:30:36;2.03;;;0.90;;
48651;SDS011;34442;52.362;-1.302;2022-09-01T10:33:07;2.10;;;0.90;;
48651;SDS011;34442;52.362;-1.302;2022-09-01T10:35:35;1.33;;;0.80;;
48651;SDS011;34442;52.362;-1.302;2022-09-01T10:38:08;1.67;;;0.85;;
48651;SDS011;34442;52.362;-1.302;2022-09-01T10:40:40;1.13;;;0.70;;
48651;SDS011;34442;52.362;-1.302;2022-09-01T10:48:47;2.75;;;0.90;;
48651;SDS011;34442;52.362;-1.302;2022-09-01T11:01:13;1.38;;;0.63;;
48651;SDS011;34442;52.362;-1.302;2022-09-01T11:03:49;1.77;;;0.93;;
48651;SDS011;34442;52.362;-1.302;2022-09-01T11:15:02;0.90;;;0.60;;
48651;SDS011;34442;52.362;-1.302;2022-09-01T11:17:53;2.97;;;0.80;;
48651;SDS011;34442;52.362;-1.302;2022-09-01T11:23:27;1.67;;;0.90;;
48651;SDS011;34442;52.362;-1.302;2022-09-01T11:25:59;1.70;;;0.98;;
48651;SDS011;34442;52.362;-1.302;2022-09-01T11:28:45;1.55;;;0.82;;
48651;SDS011;34442;52.362;-1.302;2022-09-01T11:31:16;1.27;;;0.60;;
48651;SDS011;34442;52.362;-1.302;2022-09-01T11:36:33;2.22;;;1.10;;
48651;SDS011;34442;52.362;-1.302;2022-09-01T11:41:32;0.90;;;0.60;;
48651;SDS011;34442;52.362;-1.302;2022-09-01T11:44:12;1.67;;;0.70;;
48651;SDS011;34442;52.362;-1.302;2022-09-01T11:46:43;1.73;;;0.90;;
48651;SDS011;34442;52.362;-1.302;2022-09-01T11:49:22;2.90;;;1.13;;
48651;SDS011;34442;52.362;-1.302;2022-09-01T11:51:50;0.88;;;0.70;;
48651;SDS011;34442;52.362;-1.302;2022-09-01T11:54:16;2.15;;;1.17;;
48651;SDS011;34442;52.362;-1.302;2022-09-01T11:56:42;3.08;;;1.00;;
48651;SDS011;34442;52.362;-1.302;2022-09-01T11:59:08;2.67;;;0.77;;
48651;SDS011;34442;52.362;-1.302;2022-09-01T12:01:35;1.58;;;0.90;;
48651;SDS011;34442;52.362;-1.302;2022-09-01T12:04:22;1.65;;;0.80;;
48651;SDS011;34442;52.362;-1.302;2022-09-01T12:06:55;0.98;;;0.60;;
48651;SDS011;34442;52.362;-1.302;2022-09-01T12:09:37;2.05;;;1.05;;
48651;SDS011;34442;52.362;-1.302;2022-09-01T12:15:02;1.25;;;0.68;;
48651;SDS011;34442;52.362;-1.302;2022-09-01T12:18:43;1.70;;;0.80;;
48651;SDS011;34442;52.362;-1.302;2022-09-01T12:20:47;3.30;;;1.02;;
48651;SDS011;34442;52.362;-1.302;2022-09-01T12:23:28;1.60;;;0.77;;
48651;SDS011;34442;52.362;-1.302;2022-09-01T12:25:56;1.92;;;0.90;;
48651;SDS011;34442;52.362;-1.302;2022-09-01T12:28:25;1.85;;;0.80;;
48651;SDS011;34442;52.362;-1.302;2022-09-01T12:30:55;2.35;;;0.88;;
48651;SDS011;34442;52.362;-1.302;2022-09-01T12:33:23;1.30;;;0.80;;
48651;SDS011;34442;52.362;-1.302;2022-09-01T12:35:51;1.58;;;0.77;;
48651;SDS011;34442;52.362;-1.302;2022-09-01T12:38:35;3.97;;;1.20;;
48651;SDS011;34442;52.362;-1.302;2022-09-01T12:41:01;1.05;;;0.80;;
48651;SDS011;34442;52.362;-1.302;2022-09-01T12:49:21;1.13;;;0.65;;
48651;SDS011;34442;52.362;-1.302;2022-09-01T12:54:53;1.67;;;0.90;;
48651;SDS011;34442;52.362;-1.302;2022-09-01T12:57:38;0.75;;;0.57;;
48651;SDS011;34442;52.362;-1.302;2022-09-01T13:02:37;1.75;;;0.90;;
48651;SDS011;34442;52.362;-1.302;2022-09-01T13:07:45;1.83;;;0.80;;
48651;SDS011;34442;52.362;-1.302;2022-09-01T13:10:12;1.23;;;0.77;;
48651;SDS011;34442;52.362;-1.302;2022-09-01T13:12:42;0.65;;;0.57;;
48651;SDS011;34442;52.362;-1.302;2022-09-01T13:15:10;2.03;;;0.70;;
48651;SDS011;34442;52.362;-1.302;2022-09-01T13:17:37;1.10;;;0.60;;
48651;SDS011;34442;52.362;-1.302;2022-09-01T13:20:04;1.98;;;0.80;;
48651;SDS011;34442;52.362;-1.302;2022-09-01T13:22:31;2.58;;;0.95;;
48651;SDS011;34442;52.362;-1.302;2022-09-01T13:24:57;3.70;;;1.15;;
48651;SDS011;34442;52.362;-1.302;2022-09-01T13:27:24;1.42;;;0.80;;
48651;SDS011;34442;52.362;-1.302;2022-09-01T13:29:51;0.95;;;0.70;;
48651;SDS011;34442;52.362;-1.302;2022-09-01T13:32:17;2.25;;;0.90;;
48651;SDS011;34442;52.362;-1.302;2022-09-01T13:34:44;2.03;;;0.98;;
48651;SDS011;34442;52.362;-1.302;2022-09-01T13:37:10;2.13;;;1.20;;
48651;SDS011;34442;52.362;-1.302;2022-09-01T13:39:36;2.50;;;1.00;;
48651;SDS011;34442;52.362;-1.302;2022-09-01T13:42:02;1.13;;;0.60;;
48651;SDS011;34442;52.362;-1.302;2022-09-01T13:44:28;2.38;;;1.10;;
48651;SDS011;34442;52.362;-1.302;2022-09-01T13:46:54;1.90;;;0.75;;
48651;SDS011;34442;52.362;-1.302;2022-09-01T13:49:20;1.58;;;0.82;;
48651;SDS011;34442;52.362;-1.302;2022-09-01T13:51:52;2.35;;;1.00;;
48651;SDS011;34442;52.362;-1.302;2022-09-01T13:54:19;1.13;;;0.70;;
48651;SDS011;34442;52.362;-1.302;2022-09-01T13:56:45;1.63;;;0.90;;
48651;SDS011;34442;52.362;-1.302;2022-09-01T13:59:11;1.67;;;0.82;;
48651;SDS011;34442;52.362;-1.302;2022-09-01T14:01:37;2.72;;;1.38;;
48651;SDS011;34442;52.362;-1.302;2022-09-01T14:04:06;1.75;;;0.80;;
48651;SDS011;34442;52.362;-1.302;2022-09-01T14:06:32;1.55;;;0.80;;
48651;SDS011;34442;52.362;-1.302;2022-09-01T14:09:03;1.50;;;0.80;;
48651;SDS011;34442;52.362;-1.302;2022-09-01T14:11:29;4.03;;;1.20;;
48651;SDS011;34442;52.362;-1.302;2022-09-01T14:13:56;2.15;;;0.80;;
48651;SDS011;34442;52.362;-1.302;2022-09-01T14:16:22;1.70;;;0.95;;
48651;SDS011;34442;52.362;-1.302;2022-09-01T14:18:48;1.42;;;0.70;;
48651;SDS011;34442;52.362;-1.302;2022-09-01T14:21:15;2.75;;;0.95;;
48651;SDS011;34442;52.362;-1.302;2022-09-01T14:23:41;3.95;;;1.30;;
48651;SDS011;34442;52.362;-1.302;2022-09-01T14:26:09;1.83;;;0.82;;
48651;SDS011;34442;52.362;-1.302;2022-09-01T14:28:36;1.60;;;0.80;;
48651;SDS011;34442;52.362;-1.302;2022-09-01T14:31:13;2.55;;;1.17;;
48651;SDS011;34442;52.362;-1.302;2022-09-01T14:33:43;2.00;;;0.70;;
48651;SDS011;34442;52.362;-1.302;2022-09-01T14:36:15;1.50;;;0.75;;
48651;SDS011;34442;52.362;-1.302;2022-09-01T14:38:46;1.60;;;0.77;;
48651;SDS011;34442;52.362;-1.302;2022-09-01T14:41:14;0.38;;;0.38;;
48651;SDS011;34442;52.362;-1.302;2022-09-01T14:43:41;1.13;;;0.85;;
48651;SDS011;34442;52.362;-1.302;2022-09-01T14:46:10;2.22;;;0.73;;
48651;SDS011;34442;52.362;-1.302;2022-09-01T14:48:37;2.50;;;0.98;;
48651;SDS011;34442;52.362;-1.302;2022-09-01T14:51:05;3.08;;;1.10;;
48651;SDS011;34442;52.362;-1.302;2022-09-01T14:53:32;2.40;;;1.00;;
48651;SDS011;34442;52.362;-1.302;2022-09-01T14:55:59;1.63;;;0.90;;
48651;SDS011;34442;52.362;-1.302;2022-09-01T14:58:26;2.53;;;0.55;;
48651;SDS011;34442;52.362;-1.302;2022-09-01T15:00:54;3.03;;;1.23;;
48651;SDS011;34442;52.362;-1.302;2022-09-01T15:03:22;2.45;;;0.90;;
48651;SDS011;34442;52.362;-1.302;2022-09-01T15:05:51;3.33;;;1.10;;
48651;SDS011;34442;52.362;-1.302;2022-09-01T15:08:18;2.47;;;0.90;;
48651;SDS011;34442;52.362;-1.302;2022-09-01T15:10:45;1.08;;;0.80;;
48651;SDS011;34442;52.362;-1.302;2022-09-01T15:13:11;1.88;;;0.77;;
48651;SDS011;34442;52.362;-1.302;2022-09-01T15:15:38;2.25;;;1.15;;
48651;SDS011;34442;52.362;-1.302;2022-09-01T15:18:04;2.42;;;1.02;;
48651;SDS011;34442;52.362;-1.302;2022-09-01T15:20:31;2.25;;;1.10;;
48651;SDS011;34442;52.362;-1.302;2022-09-01T15:23:17;2.30;;;1.02;;
48651;SDS011;34442;52.362;-1.302;2022-09-01T15:25:45;1.60;;;0.88;;
48651;SDS011;34442;52.362;-1.302;2022-09-01T15:28:13;1.70;;;0.90;;
48651;SDS011;34442;52.362;-1.302;2022-09-01T15:30:39;1.60;;;0.70;;
48651;SDS011;34442;52.362;-1.302;2022-09-01T15:33:07;1.75;;;0.77;;
48651;SDS011;34442;52.362;-1.302;2022-09-01T15:35:33;1.60;;;0.80;;
48651;SDS011;34442;52.362;-1.302;2022-09-01T15:37:59;1.52;;;0.80;;
48651;SDS011;34442;52.362;-1.302;2022-09-01T15:40:25;3.60;;;1.17;;
48651;SDS011;34442;52.362;-1.302;2022-09-01T15:42:52;2.65;;;1.00;;
48651;SDS011;34442;52.362;-1.302;2022-09-01T15:45:20;1.60;;;0.80;;
48651;SDS011;34442;52.362;-1.302;2022-09-01T15:47:47;1.67;;;0.80;;
48651;SDS011;34442;52.362;-1.302;2022-09-01T15:50:14;2.78;;;1.00;;
48651;SDS011;34442;52.362;-1.302;2022-09-01T15:52:49;2.15;;;0.98;;
48651;SDS011;34442;52.362;-1.302;2022-09-01T15:55:21;0.70;;;0.50;;
48651;SDS011;34442;52.362;-1.302;2022-09-01T15:57:50;1.48;;;0.68;;
48651;SDS011;34442;52.362;-1.302;2022-09-01T16:00:17;2.03;;;1.00;;
48651;SDS011;34442;52.362;-1.302;2022-09-01T16:02:43;2.28;;;0.90;;
48651;SDS011;34442;52.362;-1.302;2022-09-01T16:05:09;2.10;;;0.82;;
48651;SDS011;34442;52.362;-1.302;2022-09-01T16:07:36;2.22;;;1.10;;
48651;SDS011;34442;52.362;-1.302;2022-09-01T16:10:03;1.73;;;0.80;;
48651;SDS011;34442;52.362;-1.302;2022-09-01T16:12:30;1.92;;;0.90;;
48651;SDS011;34442;52.362;-1.302;2022-09-01T16:15:00;3.22;;;0.90;;
48651;SDS011;34442;52.362;-1.302;2022-09-01T16:20:53;2.63;;;0.90;;
48651;SDS011;34442;52.362;-1.302;2022-09-01T16:23:30;0.73;;;0.55;;
48651;SDS011;34442;52.362;-1.302;2022-09-01T16:26:03;2.55;;;1.10;;
48651;SDS011;34442;52.362;-1.302;2022-09-01T16:28:30;1.05;;;0.75;;